createdAt,value
2023-11-21T00:00:16.388Z,4.94
2023-11-21T00:02:44.489Z,4.93
2023-11-21T00:05:15.362Z,4.96
2023-11-21T00:07:43.288Z,4.97
2023-11-21T00:10:12.071Z,4.94
2023-11-21T00:12:39.282Z,4.92
2023-11-21T00:15:07.091Z,4.93
2023-11-21T00:17:34.080Z,4.98
2023-11-21T00:20:01.125Z,4.98
2023-11-21T00:22:28.130Z,5.03
2023-11-21T00:24:55.072Z,5.05
2023-11-21T00:27:22.028Z,5.06
2023-11-21T00:29:48.979Z,5.09
2023-11-21T00:32:15.962Z,5.04
2023-11-21T00:34:43.828Z,4.97
2023-11-21T00:37:10.968Z,4.95
2023-11-21T00:39:38.080Z,4.94
2023-11-21T00:42:06.074Z,4.93
2023-11-21T00:44:33.045Z,4.91
2023-11-21T00:47:00.094Z,4.89
2023-11-21T00:49:27.208Z,4.87
2023-11-21T00:51:54.271Z,4.85
2023-11-21T00:54:21.279Z,4.84
2023-11-21T00:56:51.052Z,4.83
2023-11-21T00:59:17.983Z,4.80
2023-11-21T01:01:45.579Z,4.82
2023-11-21T01:04:12.695Z,4.81
2023-11-21T01:06:40.039Z,4.78
2023-11-21T01:09:09.894Z,4.76
2023-11-21T01:11:38.755Z,4.75
2023-11-21T01:14:06.291Z,4.76
2023-11-21T01:16:36.067Z,4.74
2023-11-21T01:19:05.779Z,4.71
2023-11-21T01:21:33.423Z,4.67
2023-11-21T01:24:00.437Z,4.58
2023-11-21T01:26:27.409Z,4.52
2023-11-21T01:28:54.457Z,4.44
2023-11-21T01:31:22.064Z,4.39
2023-11-21T01:33:49.948Z,4.39
2023-11-21T01:36:16.927Z,4.39
2023-11-21T01:38:46.980Z,4.33
2023-11-21T01:41:14.365Z,4.29
2023-11-21T01:43:42.756Z,4.32
2023-11-21T01:46:10.415Z,4.27
2023-11-21T01:48:37.448Z,4.20
2023-11-21T01:51:04.747Z,4.20
2023-11-21T01:53:31.701Z,4.20
2023-11-21T01:55:59.117Z,4.24
2023-11-21T01:58:27.231Z,4.22
2023-11-21T02:00:56.316Z,4.18
2023-11-21T02:03:23.502Z,4.30
2023-11-21T02:05:50.603Z,4.42
2023-11-21T02:08:17.704Z,4.30
2023-11-21T02:10:44.794Z,4.24
2023-11-21T02:13:12.202Z,4.18
2023-11-21T02:15:39.771Z,4.05
2023-11-21T02:18:07.705Z,3.95
2023-11-21T02:20:36.350Z,3.91
2023-11-21T02:23:04.543Z,3.93
2023-11-21T02:25:35.033Z,3.94
2023-11-21T02:28:04.198Z,3.96
2023-11-21T02:30:34.576Z,3.89
2023-11-21T02:33:03.175Z,3.76
2023-11-21T02:35:32.810Z,3.76
2023-11-21T02:38:00.269Z,3.68
2023-11-21T02:40:28.121Z,3.66
2023-11-21T02:42:55.761Z,3.69
2023-11-21T02:45:25.657Z,3.67
2023-11-21T02:47:54.987Z,3.69
2023-11-21T02:50:24.189Z,3.70
2023-11-21T02:52:52.585Z,3.65
2023-11-21T02:55:21.082Z,3.58
2023-11-21T02:57:48.030Z,3.60
2023-11-21T03:00:16.535Z,3.61
2023-11-21T03:02:45.018Z,3.63
2023-11-21T03:05:12.426Z,3.63
2023-11-21T03:07:41.590Z,3.63
2023-11-21T03:10:12.726Z,3.65
2023-11-21T03:12:40.931Z,3.67
2023-11-21T03:15:09.190Z,3.69
2023-11-21T03:17:36.313Z,3.72
2023-11-21T03:20:05.622Z,3.75
2023-11-21T03:22:32.939Z,3.76
2023-11-21T03:25:00.056Z,3.80
2023-11-21T03:27:27.740Z,3.83
2023-11-21T03:29:56.103Z,3.86
2023-11-21T03:32:23.214Z,3.87
2023-11-21T03:35:00.151Z,3.87
2023-11-21T03:37:29.401Z,3.88
2023-11-21T03:39:58.195Z,3.88
2023-11-21T03:42:28.148Z,3.89
2023-11-21T03:44:55.648Z,3.90
2023-11-21T03:47:22.663Z,3.92
2023-11-21T03:49:49.807Z,3.93
2023-11-21T03:52:17.438Z,3.94
2023-11-21T03:54:44.849Z,3.93
2023-11-21T03:57:12.720Z,3.93
2023-11-21T03:59:44.365Z,3.88
2023-11-21T04:02:11.469Z,3.88
2023-11-21T04:04:38.570Z,3.87
2023-11-21T04:07:06.472Z,3.91
2023-11-21T04:09:33.925Z,3.94
2023-11-21T04:12:00.927Z,3.98
2023-11-21T04:14:27.960Z,4.09
2023-11-21T04:16:55.343Z,4.12
2023-11-21T04:19:25.398Z,4.09
2023-11-21T04:21:52.335Z,4.02
2023-11-21T04:24:19.233Z,4.00
2023-11-21T04:26:46.271Z,3.96
2023-11-21T04:29:13.403Z,3.91
2023-11-21T04:31:40.515Z,3.90
2023-11-21T04:34:07.466Z,3.93
2023-11-21T04:36:34.461Z,3.99
2023-11-21T04:39:01.452Z,4.04
2023-11-21T04:41:28.430Z,4.09
2023-11-21T04:43:55.464Z,3.97
2023-11-21T04:46:23.166Z,3.85
2023-11-21T04:48:50.447Z,3.82
2023-11-21T04:51:17.450Z,3.80
2023-11-21T04:53:44.846Z,3.70
2023-11-21T04:56:11.867Z,3.60
2023-11-21T04:58:41.201Z,3.52
2023-11-21T05:01:09.342Z,3.49
2023-11-21T05:03:36.836Z,3.51
2023-11-21T05:06:04.748Z,3.50
2023-11-21T05:08:31.808Z,3.52
2023-11-21T05:10:58.863Z,3.54
2023-11-21T05:13:29.199Z,3.55
2023-11-21T05:16:00.374Z,3.55
2023-11-21T05:18:31.238Z,3.57
2023-11-21T05:20:59.436Z,3.57
2023-11-21T05:23:26.365Z,3.58
2023-11-21T05:25:53.372Z,3.59
2023-11-21T05:28:20.464Z,3.63
2023-11-21T05:30:47.553Z,3.66
2023-11-21T05:33:14.674Z,3.69
2023-11-21T05:35:41.664Z,3.70
2023-11-21T05:38:09.433Z,3.72
2023-11-21T05:40:36.414Z,3.76
2023-11-21T05:43:03.409Z,3.80
2023-11-21T05:45:31.193Z,3.86
2023-11-21T05:47:59.944Z,3.90
2023-11-21T05:50:27.407Z,3.92
2023-11-21T05:52:54.442Z,3.97
2023-11-21T05:55:27.158Z,4.04
2023-11-21T05:57:54.805Z,4.10
2023-11-21T06:00:23.277Z,4.15
2023-11-21T06:02:55.751Z,4.18
2023-11-21T06:05:25.428Z,4.18
2023-11-21T06:08:05.897Z,4.20
2023-11-21T06:10:33.038Z,4.23
2023-11-21T06:13:02.661Z,4.30
2023-11-21T06:15:31.475Z,4.36
2023-11-21T06:17:58.665Z,4.41
2023-11-21T06:20:25.634Z,4.42
2023-11-21T06:22:52.991Z,4.42
2023-11-21T06:25:20.187Z,4.42
2023-11-21T06:27:53.206Z,4.48
2023-11-21T06:30:24.846Z,4.59
2023-11-21T06:32:52.529Z,4.62
2023-11-21T06:35:19.629Z,4.70
2023-11-21T06:37:50.764Z,4.72
2023-11-21T06:40:22.445Z,4.70
2023-11-21T06:42:50.639Z,4.74
2023-11-21T06:45:18.235Z,4.71
2023-11-21T06:47:48.646Z,4.71
2023-11-21T06:50:15.821Z,4.75
2023-11-21T06:52:42.921Z,4.78
2023-11-21T06:55:11.132Z,4.86
2023-11-21T06:57:39.748Z,4.93
2023-11-21T07:00:11.031Z,4.98
2023-11-21T07:02:38.649Z,5.02
2023-11-21T07:05:07.159Z,5.04
2023-11-21T07:07:37.288Z,5.09
2023-11-21T07:10:05.452Z,5.13
2023-11-21T07:12:32.524Z,5.21
2023-11-21T07:14:59.892Z,5.27
2023-11-21T07:17:27.090Z,5.28
2023-11-21T07:19:54.266Z,5.29
2023-11-21T07:22:23.147Z,5.32
2023-11-21T07:24:53.505Z,5.43
2023-11-21T07:27:20.635Z,5.53
2023-11-21T07:29:49.719Z,5.63
2023-11-21T07:32:17.888Z,5.76
2023-11-21T07:34:45.050Z,5.79
2023-11-21T07:37:12.437Z,5.75
2023-11-21T07:39:43.519Z,5.80
2023-11-21T07:42:12.343Z,5.86
2023-11-21T07:44:39.544Z,5.97
2023-11-21T07:47:06.728Z,6.02
2023-11-21T07:49:33.938Z,6.09
2023-11-21T07:52:01.258Z,6.16
2023-11-21T07:54:29.351Z,6.23
2023-11-21T07:56:56.440Z,6.27
2023-11-21T07:59:23.525Z,6.29
2023-11-21T08:01:51.359Z,6.29
2023-11-21T08:04:20.243Z,6.34
2023-11-21T08:06:47.508Z,6.37
2023-11-21T08:09:17.126Z,6.42
2023-11-21T08:11:44.626Z,6.42
2023-11-21T08:14:11.759Z,6.58
2023-11-21T08:16:39.862Z,6.74
2023-11-21T08:19:07.473Z,6.86
2023-11-21T08:21:34.550Z,6.97
2023-11-21T08:24:01.936Z,7.10
2023-11-21T08:26:29.118Z,7.11
2023-11-21T08:28:57.932Z,7.15
2023-11-21T08:31:27.102Z,7.25
2023-11-21T08:33:56.901Z,7.40
2023-11-21T08:36:26.986Z,7.46
2023-11-21T08:38:54.263Z,7.50
2023-11-21T08:41:24.454Z,7.51
2023-11-21T08:43:52.996Z,7.56
2023-11-21T08:46:20.446Z,7.56
2023-11-21T08:48:48.438Z,7.57
2023-11-21T08:51:15.846Z,7.60
2023-11-21T08:53:43.071Z,7.67
2023-11-21T08:56:14.612Z,7.71
2023-11-21T08:58:43.136Z,7.83
2023-11-21T09:01:10.556Z,7.94
2023-11-21T09:03:38.085Z,8.06
2023-11-21T09:06:05.859Z,8.10
2023-11-21T09:08:33.329Z,8.18
2023-11-21T09:11:00.454Z,8.28
2023-11-21T09:13:28.442Z,8.39
2023-11-21T09:15:55.673Z,8.51
2023-11-21T09:18:23.053Z,8.65
2023-11-21T09:20:50.299Z,8.76
2023-11-21T09:23:17.472Z,8.82
2023-11-21T09:25:47.737Z,8.94
2023-11-21T09:28:14.968Z,9.04
2023-11-21T09:30:42.058Z,9.05
2023-11-21T09:33:12.511Z,9.11
2023-11-21T09:35:39.862Z,9.22
2023-11-21T09:38:11.493Z,9.34
2023-11-21T09:40:39.320Z,9.51
2023-11-21T09:43:19.169Z,9.65
2023-11-21T09:45:58.026Z,9.72
2023-11-21T09:48:27.434Z,9.75
2023-11-21T09:50:55.572Z,9.81
2023-11-21T09:53:25.227Z,9.92
2023-11-21T09:55:55.641Z,9.93
2023-11-21T09:58:24.608Z,10.03
2023-11-21T10:00:55.351Z,10.17
2023-11-21T10:03:22.588Z,10.26
2023-11-21T10:05:51.938Z,10.27
2023-11-21T10:08:21.361Z,10.39
2023-11-21T10:10:52.655Z,10.49
2023-11-21T10:13:20.732Z,10.55
2023-11-21T10:15:53.260Z,10.64
2023-11-21T10:18:20.999Z,10.70
2023-11-21T10:20:53.929Z,10.74
2023-11-21T10:23:24.220Z,10.75
2023-11-21T10:26:00.315Z,10.62
2023-11-21T10:28:29.423Z,10.63
2023-11-21T10:30:57.317Z,10.68
2023-11-21T10:33:30.695Z,10.70
2023-11-21T10:35:57.811Z,10.73
2023-11-21T10:38:25.625Z,10.79
2023-11-21T10:40:53.360Z,10.74
2023-11-21T10:43:20.661Z,10.78
2023-11-21T10:45:47.946Z,10.82
2023-11-21T10:48:18.785Z,10.83
2023-11-21T10:50:47.957Z,10.85
2023-11-21T10:53:15.270Z,10.84
2023-11-21T10:55:43.038Z,10.85
2023-11-21T10:58:12.349Z,10.86
2023-11-21T11:00:41.745Z,10.87
2023-11-21T11:03:16.768Z,10.75
2023-11-21T11:05:53.707Z,10.76
2023-11-21T11:08:28.138Z,10.81
2023-11-21T11:10:56.994Z,10.85
2023-11-21T11:13:25.344Z,10.88
2023-11-21T11:16:00.919Z,10.91
2023-11-21T11:18:28.194Z,10.93
2023-11-21T11:20:55.745Z,10.93
2023-11-21T11:23:57.795Z,10.97
2023-11-21T11:26:43.865Z,11.00
2023-11-21T11:29:52.207Z,11.03
2023-11-21T11:33:08.823Z,11.08
2023-11-21T11:36:06.195Z,11.07
2023-11-21T11:38:35.116Z,11.11
2023-11-21T11:41:06.477Z,11.01
2023-11-21T11:43:34.228Z,10.96
2023-11-21T11:46:05.322Z,10.97
2023-11-21T11:48:36.706Z,10.89
2023-11-21T11:51:05.392Z,10.65
2023-11-21T11:53:43.385Z,10.61
2023-11-21T11:56:28.209Z,10.50
2023-11-21T11:59:00.362Z,10.50
2023-11-21T12:01:28.338Z,10.35
2023-11-21T12:04:36.200Z,10.30
2023-11-21T12:07:04.614Z,10.00
2023-11-21T12:09:33.091Z,9.87
2023-11-21T12:12:01.385Z,9.95
2023-11-21T12:14:30.142Z,9.84
2023-11-21T12:16:57.388Z,9.69
2023-11-21T12:19:24.555Z,9.79
2023-11-21T12:21:53.483Z,9.73
2023-11-21T12:24:20.534Z,9.58
2023-11-21T12:26:47.693Z,9.57
2023-11-21T12:29:14.770Z,9.59
2023-11-21T12:31:41.948Z,9.39
2023-11-21T12:34:12.694Z,9.30
2023-11-21T12:36:40.361Z,9.26
2023-11-21T12:39:07.767Z,9.30
2023-11-21T12:41:34.808Z,9.35
2023-11-21T12:44:02.004Z,9.37
2023-11-21T12:46:34.292Z,9.44
2023-11-21T12:49:01.474Z,9.47
2023-11-21T12:51:30.823Z,9.48
2023-11-21T12:54:00.275Z,9.51
2023-11-21T12:56:28.091Z,9.51
2023-11-21T12:58:58.503Z,9.53
2023-11-21T13:01:29.817Z,9.48
2023-11-21T13:03:58.413Z,9.43
2023-11-21T13:06:27.317Z,9.44
2023-11-21T13:08:58.601Z,9.47
2023-11-21T13:11:27.427Z,9.44
2023-11-21T13:13:55.015Z,9.42
2023-11-21T13:16:22.229Z,9.42
2023-11-21T13:18:49.555Z,9.45
2023-11-21T13:21:19.586Z,9.41
2023-11-21T13:23:47.683Z,9.29
2023-11-21T13:26:16.535Z,9.25
2023-11-21T13:28:48.031Z,9.27
2023-11-21T13:31:28.469Z,9.24
2023-11-21T13:34:05.527Z,9.25
2023-11-21T13:36:36.334Z,9.28
2023-11-21T13:39:09.910Z,9.28
2023-11-21T13:41:40.094Z,9.28
2023-11-21T13:44:18.985Z,9.25
2023-11-21T13:46:47.889Z,9.23
2023-11-21T13:49:17.086Z,9.24
2023-11-21T13:51:47.210Z,9.25
2023-11-21T13:54:14.507Z,9.25
2023-11-21T13:56:43.978Z,9.21
2023-11-21T13:59:22.464Z,9.20
2023-11-21T14:01:57.430Z,9.20
2023-11-21T14:04:51.417Z,9.24
2023-11-21T14:07:33.385Z,9.31
2023-11-21T14:10:00.424Z,9.34
2023-11-21T14:12:27.370Z,9.38
2023-11-21T14:14:56.279Z,9.40
2023-11-21T14:17:25.662Z,9.39
2023-11-21T14:19:53.319Z,9.37
2023-11-21T14:22:20.342Z,9.34
2023-11-21T14:24:48.323Z,9.37
2023-11-21T14:27:18.234Z,9.39
2023-11-21T14:29:46.415Z,9.35
2023-11-21T14:32:14.779Z,9.37
2023-11-21T14:34:44.415Z,9.39
2023-11-21T14:37:15.151Z,9.40
2023-11-21T14:39:46.150Z,9.38
2023-11-21T14:42:16.528Z,9.37
2023-11-21T14:44:44.330Z,9.36
2023-11-21T14:47:16.817Z,9.35
2023-11-21T14:49:58.016Z,9.39
2023-11-21T14:52:35.184Z,9.42
2023-11-21T14:55:42.824Z,9.43
2023-11-21T14:58:14.060Z,9.44
2023-11-21T15:00:46.198Z,9.47
2023-11-21T15:03:36.505Z,9.49
2023-11-21T15:06:26.163Z,9.48
2023-11-21T15:08:58.663Z,9.47
2023-11-21T15:11:32.280Z,9.40
2023-11-21T15:14:00.512Z,9.32
2023-11-21T15:16:27.915Z,9.27
2023-11-21T15:18:55.617Z,9.24
2023-11-21T15:21:25.743Z,9.26
2023-11-21T15:23:52.681Z,9.25
2023-11-21T15:26:19.735Z,9.24
2023-11-21T15:28:46.884Z,9.23
2023-11-21T15:31:14.470Z,9.19
2023-11-21T15:33:41.488Z,9.15
2023-11-21T15:36:11.227Z,9.14
2023-11-21T15:38:38.872Z,9.12
2023-11-21T15:41:08.622Z,9.12
2023-11-21T15:43:35.770Z,9.20
2023-11-21T15:46:07.694Z,9.25
2023-11-21T15:48:41.565Z,9.20
2023-11-21T15:51:13.653Z,9.15
2023-11-21T15:53:40.708Z,9.12
2023-11-21T15:56:12.092Z,9.08
2023-11-21T15:58:49.923Z,9.04
2023-11-21T16:01:18.203Z,9.03
2023-11-21T16:03:48.387Z,9.05
2023-11-21T16:06:16.885Z,9.05
2023-11-21T16:08:44.551Z,9.03
2023-11-21T16:11:11.993Z,9.03
2023-11-21T16:13:39.988Z,9.00
2023-11-21T16:16:07.355Z,8.95
2023-11-21T16:18:34.266Z,8.93
2023-11-21T16:21:01.220Z,8.92
2023-11-21T16:23:28.821Z,8.90
2023-11-21T16:25:56.237Z,8.88
2023-11-21T16:28:24.019Z,8.88
2023-11-21T16:30:51.830Z,8.87
2023-11-21T16:33:19.473Z,8.87
2023-11-21T16:35:48.600Z,8.86
2023-11-21T16:38:16.658Z,8.89
2023-11-21T16:40:46.307Z,8.89
2023-11-21T16:43:13.267Z,8.86
2023-11-21T16:45:40.214Z,8.83
2023-11-21T16:48:09.048Z,8.79
2023-11-21T16:50:36.201Z,8.75
2023-11-21T16:53:03.448Z,8.76
2023-11-21T16:55:30.489Z,8.79
2023-11-21T16:57:57.463Z,8.81
2023-11-21T17:00:24.521Z,8.81
2023-11-21T17:02:51.710Z,8.80
2023-11-21T17:05:20.488Z,8.82
2023-11-21T17:07:47.730Z,8.84
2023-11-21T17:10:15.195Z,8.81
2023-11-21T17:12:42.353Z,8.80
2023-11-21T17:15:10.457Z,8.76
2023-11-21T17:17:38.511Z,8.72
2023-11-21T17:20:09.586Z,8.59
2023-11-21T17:22:36.820Z,8.49
2023-11-21T17:25:03.997Z,8.48
2023-11-21T17:27:32.130Z,8.45
2023-11-21T17:29:59.114Z,8.37
2023-11-21T17:32:26.138Z,8.31
2023-11-21T17:34:53.220Z,8.24
2023-11-21T17:37:20.190Z,8.17
2023-11-21T17:39:47.241Z,8.10
2023-11-21T17:42:14.922Z,8.04
2023-11-21T17:44:41.880Z,8.03
2023-11-21T17:47:10.974Z,8.01
2023-11-21T17:49:38.051Z,7.99
2023-11-21T17:52:05.855Z,8.01
2023-11-21T17:54:32.947Z,8.01
2023-11-21T17:56:59.899Z,8.01
2023-11-21T17:59:27.037Z,7.90
2023-11-21T18:01:54.495Z,7.77
2023-11-21T18:04:24.021Z,7.74
2023-11-21T18:06:51.371Z,7.80
2023-11-21T18:09:18.429Z,7.94
2023-11-21T18:11:45.428Z,8.02
2023-11-21T18:14:13.310Z,8.16
2023-11-21T18:16:43.023Z,7.98
2023-11-21T18:19:10.542Z,7.91
2023-11-21T18:21:43.871Z,7.88
2023-11-21T18:24:11.509Z,7.85
2023-11-21T18:26:38.657Z,7.84
2023-11-21T18:29:05.674Z,7.82
2023-11-21T18:31:32.878Z,7.82
2023-11-21T18:34:00.623Z,7.84
2023-11-21T18:36:27.756Z,7.89
2023-11-21T18:38:54.720Z,7.85
2023-11-21T18:41:23.733Z,7.78
2023-11-21T18:43:51.592Z,7.78
2023-11-21T18:46:19.557Z,7.74
2023-11-21T18:48:49.033Z,7.62
2023-11-21T18:51:16.434Z,7.58
2023-11-21T18:53:43.464Z,7.65
2023-11-21T18:56:20.113Z,7.60
2023-11-21T18:58:47.119Z,7.50
2023-11-21T19:01:14.437Z,7.45
2023-11-21T19:03:43.637Z,7.44
2023-11-21T19:06:10.804Z,7.45
2023-11-21T19:08:37.796Z,7.54
2023-11-21T19:11:04.923Z,7.57
2023-11-21T19:13:31.911Z,7.61
2023-11-21T19:15:59.194Z,7.69
2023-11-21T19:18:26.186Z,7.72
2023-11-21T19:20:53.182Z,7.72
2023-11-21T19:23:21.837Z,7.70
2023-11-21T19:25:49.658Z,7.80
2023-11-21T19:28:16.842Z,7.77
2023-11-21T19:30:44.611Z,7.76
2023-11-21T19:33:12.846Z,7.75
2023-11-21T19:35:40.383Z,7.77
2023-11-21T19:38:07.421Z,7.76
2023-11-21T19:40:34.340Z,7.76
2023-11-21T19:43:01.949Z,7.83
2023-11-21T19:45:32.424Z,8.07
2023-11-21T19:47:59.950Z,7.96
2023-11-21T19:50:27.079Z,7.87
2023-11-21T19:52:54.099Z,7.91
2023-11-21T19:55:21.095Z,7.89
2023-11-21T19:57:48.085Z,7.82
2023-11-21T20:00:16.320Z,7.83
2023-11-21T20:02:45.008Z,7.87
2023-11-21T20:05:16.541Z,7.86
2023-11-21T20:07:43.728Z,7.78
2023-11-21T20:10:11.200Z,7.78
2023-11-21T20:12:38.249Z,7.84
2023-11-21T20:15:07.143Z,7.88
2023-11-21T20:17:34.309Z,7.92
2023-11-21T20:20:01.299Z,7.92
2023-11-21T20:22:28.817Z,7.83
2023-11-21T20:24:55.830Z,7.94
2023-11-21T20:27:22.775Z,8.00
2023-11-21T20:29:49.923Z,7.89
2023-11-21T20:32:18.174Z,7.90
2023-11-21T20:34:51.354Z,7.97
2023-11-21T20:37:18.360Z,7.99
2023-11-21T20:39:47.187Z,8.00
2023-11-21T20:42:16.608Z,8.05
2023-11-21T20:44:43.607Z,8.08
2023-11-21T20:47:12.684Z,8.09
2023-11-21T20:49:47.998Z,8.06
2023-11-21T20:52:16.408Z,8.15
2023-11-21T20:54:43.373Z,8.15
2023-11-21T20:57:11.224Z,8.13
2023-11-21T20:59:38.268Z,8.10
2023-11-21T21:02:05.992Z,8.12
2023-11-21T21:04:33.419Z,8.06
2023-11-21T21:07:00.403Z,8.13
2023-11-21T21:09:27.282Z,8.00
2023-11-21T21:11:54.372Z,7.92
2023-11-21T21:14:21.912Z,7.90
2023-11-21T21:16:49.037Z,7.96
2023-11-21T21:19:16.115Z,7.94
2023-11-21T21:21:43.210Z,7.92
2023-11-21T21:24:10.442Z,7.92
2023-11-21T21:26:37.399Z,7.90
2023-11-21T21:29:04.381Z,7.94
2023-11-21T21:31:33.560Z,7.96
2023-11-21T21:34:00.798Z,8.01
2023-11-21T21:36:27.800Z,8.00
2023-11-21T21:38:54.798Z,8.00
2023-11-21T21:41:21.924Z,7.96
2023-11-21T21:43:48.985Z,7.91
2023-11-21T21:46:17.466Z,7.94
2023-11-21T21:48:44.623Z,7.98
2023-11-21T21:51:18.548Z,7.99
2023-11-21T21:53:46.392Z,7.94
2023-11-21T21:56:14.985Z,7.91
2023-11-21T21:58:42.228Z,7.90
2023-11-21T22:01:09.827Z,7.88
2023-11-21T22:03:36.903Z,7.89
2023-11-21T22:06:05.532Z,7.91
2023-11-21T22:08:34.509Z,7.94
2023-11-21T22:11:02.868Z,7.91
2023-11-21T22:13:29.887Z,7.93
2023-11-21T22:15:56.929Z,7.88
2023-11-21T22:18:25.504Z,7.88
2023-11-21T22:20:52.500Z,7.90
2023-11-21T22:23:19.648Z,7.93
2023-11-21T22:25:47.560Z,7.92
2023-11-21T22:28:14.569Z,7.89
2023-11-21T22:30:41.525Z,7.91
2023-11-21T22:33:09.108Z,7.94
2023-11-21T22:35:36.066Z,7.93
2023-11-21T22:38:03.884Z,7.91
2023-11-21T22:40:31.066Z,7.86
2023-11-21T22:42:57.957Z,7.82
2023-11-21T22:45:25.373Z,7.81
2023-11-21T22:47:52.888Z,7.81
2023-11-21T22:50:19.882Z,7.96
2023-11-21T22:52:47.502Z,7.94
2023-11-21T22:55:15.867Z,7.82
2023-11-21T22:57:42.894Z,7.78
2023-11-21T23:00:13.466Z,7.73
2023-11-21T23:02:41.141Z,7.72
2023-11-21T23:05:10.012Z,7.69
2023-11-21T23:07:37.462Z,7.70
2023-11-21T23:10:04.884Z,7.85
2023-11-21T23:12:31.835Z,7.92
2023-11-21T23:14:59.600Z,7.95
2023-11-21T23:17:28.951Z,7.92
2023-11-21T23:19:56.762Z,7.68
2023-11-21T23:22:23.733Z,7.56
2023-11-21T23:24:50.738Z,7.50
2023-11-21T23:27:17.644Z,7.48
2023-11-21T23:29:44.752Z,7.51
2023-11-21T23:32:13.198Z,7.56
2023-11-21T23:34:40.511Z,7.61
2023-11-21T23:37:07.572Z,7.53
2023-11-21T23:39:34.456Z,7.48
2023-11-21T23:42:01.457Z,7.42
2023-11-21T23:44:29.539Z,7.42
2023-11-21T23:46:56.512Z,7.55
2023-11-21T23:49:23.515Z,7.46
2023-11-21T23:51:50.466Z,7.41
2023-11-21T23:54:18.257Z,7.36
2023-11-21T23:56:45.257Z,7.30
2023-11-21T23:59:12.294Z,7.31
